sensor_id;sensor_type;location;lat;lon;timestamp;pressure;altitude;pressure_sealevel;temperature;humidity
7022;BME280;3552;42.664;23.406;2022-12-18T00:00:49;50004.41;;;-141.28;100.00
7022;BME280;3552;42.664;23.406;2022-12-18T00:03:15;49998.50;;;-141.28;100.00
7022;BME280;3552;42.664;23.406;2022-12-18T00:05:47;50043.66;;;-141.28;100.00
7022;BME280;3552;42.664;23.406;2022-12-18T00:08:14;50035.81;;;-141.28;100.00
7022;BME280;3552;42.664;23.406;2022-12-18T00:10:42;50035.81;;;-141.28;100.00
7022;BME280;3552;42.664;23.406;2022-12-18T00:13:11;50075.06;;;-141.28;100.00
7022;BME280;3552;42.664;23.406;2022-12-18T00:15:39;50049.53;;;-141.28;100.00
7022;BME280;3552;42.664;23.406;2022-12-18T00:18:08;50020.09;;;-141.28;100.00
7022;BME280;3552;42.664;23.406;2022-12-18T00:20:36;50047.59;;;-141.28;100.00
7022;BME280;3552;42.664;23.406;2022-12-18T00:23:04;50063.28;;;-141.28;100.00
7022;BME280;3552;42.664;23.406;2022-12-18T00:25:33;50092.72;;;-141.28;100.00
7022;BME280;3552;42.664;23.406;2022-12-18T00:28:00;50098.63;;;-141.28;100.00
7022;BME280;3552;42.664;23.406;2022-12-18T00:30:29;50098.63;;;-141.28;100.00
7022;BME280;3552;42.664;23.406;2022-12-18T00:32:59;50035.81;;;-141.28;100.00
7022;BME280;3552;42.664;23.406;2022-12-18T00:35:26;50131.97;;;-141.28;100.00
7022;BME280;3552;42.664;23.406;2022-12-18T00:37:54;50137.88;;;-141.28;100.00
7022;BME280;3552;42.664;23.406;2022-12-18T00:40:21;50098.63;;;-141.28;100.00
7022;BME280;3552;42.664;23.406;2022-12-18T00:42:49;50204.59;;;-141.28;100.00
7022;BME280;3552;42.664;23.406;2022-12-18T00:45:22;50184.97;;;-141.28;100.00
7022;BME280;3552;42.664;23.406;2022-12-18T00:47:51;50210.47;;;-141.28;100.00
7022;BME280;3552;42.664;23.406;2022-12-18T00:50:18;50210.47;;;-141.28;100.00
7022;BME280;3552;42.664;23.406;2022-12-18T00:52:45;50237.97;;;-141.28;100.00
7022;BME280;3552;42.664;23.406;2022-12-18T00:55:13;50267.41;;;-141.28;100.00
7022;BME280;3552;42.664;23.406;2022-12-18T00:57:40;50230.13;;;-141.28;100.00
7022;BME280;3552;42.664;23.406;2022-12-18T01:00:10;50251.69;;;-141.28;100.00
7022;BME280;3552;42.664;23.406;2022-12-18T01:02:38;50249.75;;;-141.28;100.00
7022;BME280;3552;42.664;23.406;2022-12-18T01:05:08;50239.94;;;-141.28;100.00
7022;BME280;3552;42.664;23.406;2022-12-18T01:07:35;50275.25;;;-141.28;100.00
7022;BME280;3552;42.664;23.406;2022-12-18T01:10:02;50271.31;;;-141.28;100.00
7022;BME280;3552;42.664;23.406;2022-12-18T01:12:28;50287.03;;;-141.28;100.00
7022;BME280;3552;42.664;23.406;2022-12-18T01:14:56;50251.69;;;-141.28;100.00
7022;BME280;3552;42.664;23.406;2022-12-18T01:17:23;50308.63;;;-141.28;100.00
7022;BME280;3552;42.664;23.406;2022-12-18T01:19:50;50275.25;;;-141.28;100.00
7022;BME280;3552;42.664;23.406;2022-12-18T01:22:20;50334.13;;;-141.28;100.00
7022;BME280;3552;42.664;23.406;2022-12-18T01:24:46;50322.34;;;-141.28;100.00
7022;BME280;3552;42.664;23.406;2022-12-18T01:27:14;50353.75;;;-141.28;100.00
7022;BME280;3552;42.664;23.406;2022-12-18T01:29:41;50353.75;;;-141.28;100.00
7022;BME280;3552;42.664;23.406;2022-12-18T01:32:08;50349.84;;;-141.28;100.00
7022;BME280;3552;42.664;23.406;2022-12-18T01:34:35;50365.53;;;-141.28;100.00
7022;BME280;3552;42.664;23.406;2022-12-18T01:37:03;50300.78;;;-141.28;100.00
7022;BME280;3552;42.664;23.406;2022-12-18T01:39:33;50393.03;;;-141.28;100.00
7022;BME280;3552;42.664;23.406;2022-12-18T01:42:01;50385.16;;;-141.28;100.00
7022;BME280;3552;42.664;23.406;2022-12-18T01:44:54;50290.97;;;-141.28;100.00
7022;BME280;3552;42.664;23.406;2022-12-18T01:47:24;50298.81;;;-141.28;100.00
7022;BME280;3552;42.664;23.406;2022-12-18T01:49:51;50255.63;;;-141.28;100.00
7022;BME280;3552;42.664;23.406;2022-12-18T01:52:19;50349.84;;;-141.28;100.00
7022;BME280;3552;42.664;23.406;2022-12-18T01:54:49;50381.25;;;-141.28;100.00
7022;BME280;3552;42.664;23.406;2022-12-18T01:57:17;50420.50;;;-141.28;100.00
7022;BME280;3552;42.664;23.406;2022-12-18T01:59:47;50436.19;;;-141.28;100.00
7022;BME280;3552;42.664;23.406;2022-12-18T02:02:16;50404.81;;;-141.28;100.00
7022;BME280;3552;42.664;23.406;2022-12-18T02:04:43;50432.28;;;-141.28;100.00
7022;BME280;3552;42.664;23.406;2022-12-18T02:07:14;50508.81;;;-141.28;100.00
7022;BME280;3552;42.664;23.406;2022-12-18T02:09:48;50414.63;;;-141.28;100.00
7022;BME280;3552;42.664;23.406;2022-12-18T02:12:18;50483.31;;;-141.28;100.00
7022;BME280;3552;42.664;23.406;2022-12-18T02:14:53;50467.59;;;-141.28;100.00
7022;BME280;3552;42.664;23.406;2022-12-18T02:17:25;50444.06;;;-141.28;100.00
7022;BME280;3552;42.664;23.406;2022-12-18T02:20:04;50467.59;;;-141.28;100.00
7022;BME280;3552;42.664;23.406;2022-12-18T02:22:41;50436.19;;;-141.28;100.00
7022;BME280;3552;42.664;23.406;2022-12-18T02:25:28;50396.94;;;-141.28;100.00
7022;BME280;3552;42.664;23.406;2022-12-18T02:28:00;50400.88;;;-141.28;100.00
7022;BME280;3552;42.664;23.406;2022-12-18T02:30:31;50457.78;;;-141.28;100.00
7022;BME280;3552;42.664;23.406;2022-12-18T02:33:01;50479.38;;;-141.28;100.00
7022;BME280;3552;42.664;23.406;2022-12-18T02:35:30;50479.38;;;-141.28;100.00
7022;BME280;3552;42.664;23.406;2022-12-18T02:37:59;50534.34;;;-141.28;100.00
7022;BME280;3552;42.664;23.406;2022-12-18T02:40:28;50534.34;;;-141.28;100.00
7022;BME280;3552;42.664;23.406;2022-12-18T02:42:55;50591.28;;;-141.28;100.00
7022;BME280;3552;42.664;23.406;2022-12-18T02:45:30;50585.38;;;-141.28;100.00
7022;BME280;3552;42.664;23.406;2022-12-18T02:47:57;50605.00;;;-141.28;100.00
7022;BME280;3552;42.664;23.406;2022-12-18T02:50:29;50671.75;;;-141.28;100.00
7022;BME280;3552;42.664;23.406;2022-12-18T02:53:06;50518.66;;;-141.28;100.00
7022;BME280;3552;42.664;23.406;2022-12-18T02:55:49;50626.59;;;-141.28;100.00
7022;BME280;3552;42.664;23.406;2022-12-18T02:58:23;50616.78;;;-141.28;100.00
7022;BME280;3552;42.664;23.406;2022-12-18T03:00:58;50652.13;;;-141.28;100.00
7022;BME280;3552;42.664;23.406;2022-12-18T03:03:31;50628.56;;;-141.28;100.00
7022;BME280;3552;42.664;23.406;2022-12-18T03:06:05;50720.81;;;-141.28;100.00
7022;BME280;3552;42.664;23.406;2022-12-18T03:08:38;50758.13;;;-141.28;100.00
7022;BME280;3552;42.664;23.406;2022-12-18T03:11:08;50760.09;;;-141.28;100.00
7022;BME280;3552;42.664;23.406;2022-12-18T03:13:37;50828.78;;;-141.28;100.00
7022;BME280;3552;42.664;23.406;2022-12-18T03:16:10;50848.44;;;-141.28;100.00
7022;BME280;3552;42.664;23.406;2022-12-18T03:18:40;50875.91;;;-141.28;100.00
7022;BME280;3552;42.664;23.406;2022-12-18T03:21:10;50889.66;;;-141.28;100.00
7022;BME280;3552;42.664;23.406;2022-12-18T03:23:40;50905.34;;;-141.28;100.00
7022;BME280;3552;42.664;23.406;2022-12-18T03:26:12;50930.88;;;-141.28;100.00
7022;BME280;3552;42.664;23.406;2022-12-18T03:28:45;50923.03;;;-141.28;100.00
7022;BME280;3552;42.664;23.406;2022-12-18T03:31:16;50595.19;;;-141.28;100.00
7022;BME280;3552;42.664;23.406;2022-12-18T03:33:46;50899.47;;;-141.28;100.00
7022;BME280;3552;42.664;23.406;2022-12-18T03:36:15;50907.31;;;-141.28;100.00
7022;BME280;3552;42.664;23.406;2022-12-18T03:38:44;50946.59;;;-141.28;100.00
7022;BME280;3552;42.664;23.406;2022-12-18T03:41:16;50919.09;;;-141.28;100.00
7022;BME280;3552;42.664;23.406;2022-12-18T03:43:51;50875.91;;;-141.28;100.00
7022;BME280;3552;42.664;23.406;2022-12-18T03:46:26;50848.44;;;-141.28;100.00
7022;BME280;3552;42.664;23.406;2022-12-18T03:48:59;50654.09;;;-141.28;100.00
7022;BME280;3552;42.664;23.406;2022-12-18T03:51:36;50756.16;;;-141.28;100.00
7022;BME280;3552;42.664;23.406;2022-12-18T03:54:06;50746.34;;;-141.28;100.00
7022;BME280;3552;42.664;23.406;2022-12-18T03:56:38;50738.50;;;-141.28;100.00
7022;BME280;3552;42.664;23.406;2022-12-18T03:59:08;50656.06;;;-141.28;100.00
7022;BME280;3552;42.664;23.406;2022-12-18T04:01:41;50734.56;;;-141.28;100.00
7022;BME280;3552;42.664;23.406;2022-12-18T04:04:11;50707.09;;;-141.28;100.00
7022;BME280;3552;42.664;23.406;2022-12-18T04:06:40;50714.94;;;-141.28;100.00
7022;BME280;3552;42.664;23.406;2022-12-18T04:09:08;50712.97;;;-141.28;100.00
7022;BME280;3552;42.664;23.406;2022-12-18T04:11:37;50665.88;;;-141.28;100.00
7022;BME280;3552;42.664;23.406;2022-12-18T04:14:04;50711.00;;;-141.28;100.00
7022;BME280;3552;42.664;23.406;2022-12-18T04:16:31;50597.16;;;-141.28;100.00
7022;BME280;3552;42.664;23.406;2022-12-18T04:18:59;50712.97;;;-141.28;100.00
7022;BME280;3552;42.664;23.406;2022-12-18T04:21:26;50687.47;;;-141.28;100.00
7022;BME280;3552;42.664;23.406;2022-12-18T04:23:53;50695.31;;;-141.28;100.00
7022;BME280;3552;42.664;23.406;2022-12-18T04:26:25;50699.22;;;-141.28;100.00
7022;BME280;3552;42.664;23.406;2022-12-18T04:28:52;50659.97;;;-141.28;100.00
7022;BME280;3552;42.664;23.406;2022-12-18T04:31:19;50671.75;;;-141.28;100.00
7022;BME280;3552;42.664;23.406;2022-12-18T04:33:47;50628.56;;;-141.28;100.00
7022;BME280;3552;42.664;23.406;2022-12-18T04:36:15;50632.50;;;-141.28;100.00
7022;BME280;3552;42.664;23.406;2022-12-18T04:38:42;50593.22;;;-141.28;100.00
7022;BME280;3552;42.664;23.406;2022-12-18T04:41:11;50616.78;;;-141.28;100.00
7022;BME280;3552;42.664;23.406;2022-12-18T04:43:37;50614.81;;;-141.28;100.00
7022;BME280;3552;42.664;23.406;2022-12-18T04:46:05;50628.56;;;-141.28;100.00
7022;BME280;3552;42.664;23.406;2022-12-18T04:48:34;50601.09;;;-141.28;100.00
7022;BME280;3552;42.664;23.406;2022-12-18T04:51:02;50593.22;;;-141.28;100.00
7022;BME280;3552;42.664;23.406;2022-12-18T04:53:30;50593.22;;;-141.28;100.00
7022;BME280;3552;42.664;23.406;2022-12-18T04:56:06;50420.50;;;-141.28;100.00
7022;BME280;3552;42.664;23.406;2022-12-18T04:58:34;50510.78;;;-141.28;100.00
7022;BME280;3552;42.664;23.406;2022-12-18T05:01:01;50495.09;;;-141.28;100.00
7022;BME280;3552;42.664;23.406;2022-12-18T05:03:28;50447.97;;;-141.28;100.00
7022;BME280;3552;42.664;23.406;2022-12-18T05:05:55;50512.75;;;-141.28;100.00
7022;BME280;3552;42.664;23.406;2022-12-18T05:08:23;50506.88;;;-141.28;100.00
7022;BME280;3552;42.664;23.406;2022-12-18T05:10:58;50473.50;;;-141.28;100.00
7022;BME280;3552;42.664;23.406;2022-12-18T05:13:26;50471.53;;;-141.28;100.00
7022;BME280;3552;42.664;23.406;2022-12-18T05:15:53;50440.13;;;-141.28;100.00
7022;BME280;3552;42.664;23.406;2022-12-18T05:18:20;50444.06;;;-141.28;100.00
7022;BME280;3552;42.664;23.406;2022-12-18T05:20:47;50453.88;;;-141.28;100.00
7022;BME280;3552;42.664;23.406;2022-12-18T05:23:15;50444.06;;;-141.28;100.00
7022;BME280;3552;42.664;23.406;2022-12-18T05:25:46;50434.25;;;-141.28;100.00
7022;BME280;3552;42.664;23.406;2022-12-18T05:28:15;50446.03;;;-141.28;100.00
7022;BME280;3552;42.664;23.406;2022-12-18T05:30:42;50438.16;;;-141.28;100.00
7022;BME280;3552;42.664;23.406;2022-12-18T05:33:09;50428.34;;;-141.28;100.00
7022;BME280;3552;42.664;23.406;2022-12-18T05:35:35;50471.53;;;-141.28;100.00
7022;BME280;3552;42.664;23.406;2022-12-18T05:38:03;50436.19;;;-141.28;100.00
7022;BME280;3552;42.664;23.406;2022-12-18T05:40:30;50475.47;;;-141.28;100.00
7022;BME280;3552;42.664;23.406;2022-12-18T05:42:57;50449.94;;;-141.28;100.00
7022;BME280;3552;42.664;23.406;2022-12-18T05:45:26;50473.50;;;-141.28;100.00
7022;BME280;3552;42.664;23.406;2022-12-18T05:47:52;50467.59;;;-141.28;100.00
7022;BME280;3552;42.664;23.406;2022-12-18T05:50:19;50457.78;;;-141.28;100.00
7022;BME280;3552;42.664;23.406;2022-12-18T05:52:46;50463.69;;;-141.28;100.00
7022;BME280;3552;42.664;23.406;2022-12-18T05:55:13;50459.75;;;-141.28;100.00
7022;BME280;3552;42.664;23.406;2022-12-18T05:57:40;50381.25;;;-141.28;100.00
7022;BME280;3552;42.664;23.406;2022-12-18T06:00:10;50440.13;;;-141.28;100.00
7022;BME280;3552;42.664;23.406;2022-12-18T06:02:39;50420.50;;;-141.28;100.00
7022;BME280;3552;42.664;23.406;2022-12-18T06:05:06;50414.63;;;-141.28;100.00
7022;BME280;3552;42.664;23.406;2022-12-18T06:07:33;50408.72;;;-141.28;100.00
7022;BME280;3552;42.664;23.406;2022-12-18T06:10:00;50402.84;;;-141.28;100.00
7022;BME280;3552;42.664;23.406;2022-12-18T06:12:28;50373.38;;;-141.28;100.00
7022;BME280;3552;42.664;23.406;2022-12-18T06:14:55;50365.53;;;-141.28;100.00
7022;BME280;3552;42.664;23.406;2022-12-18T06:17:22;50342.00;;;-141.28;100.00
7022;BME280;3552;42.664;23.406;2022-12-18T06:19:51;50328.25;;;-141.28;100.00
7022;BME280;3552;42.664;23.406;2022-12-18T06:22:17;50326.28;;;-141.28;100.00
7022;BME280;3552;42.664;23.406;2022-12-18T06:24:46;50343.94;;;-141.28;100.00
7022;BME280;3552;42.664;23.406;2022-12-18T06:27:13;50336.09;;;-141.28;100.00
7022;BME280;3552;42.664;23.406;2022-12-18T06:29:40;50314.50;;;-141.28;100.00
7022;BME280;3552;42.664;23.406;2022-12-18T06:32:07;50326.28;;;-141.28;100.00
7022;BME280;3552;42.664;23.406;2022-12-18T06:34:36;50304.69;;;-141.28;100.00
7022;BME280;3552;42.664;23.406;2022-12-18T06:37:05;50290.97;;;-141.28;100.00
7022;BME280;3552;42.664;23.406;2022-12-18T06:39:34;50281.13;;;-141.28;100.00
7022;BME280;3552;42.664;23.406;2022-12-18T06:42:01;50108.44;;;-141.28;100.00
7022;BME280;3552;42.664;23.406;2022-12-18T06:44:27;50290.97;;;-141.28;100.00
7022;BME280;3552;42.664;23.406;2022-12-18T06:46:56;50302.72;;;-141.28;100.00
7022;BME280;3552;42.664;23.406;2022-12-18T06:49:23;50290.97;;;-141.28;100.00
7022;BME280;3552;42.664;23.406;2022-12-18T06:51:50;50287.03;;;-141.28;100.00
7022;BME280;3552;42.664;23.406;2022-12-18T06:54:19;50275.25;;;-141.28;100.00
7022;BME280;3552;42.664;23.406;2022-12-18T06:56:47;50275.25;;;-141.28;100.00
7022;BME280;3552;42.664;23.406;2022-12-18T06:59:15;50082.91;;;-141.28;100.00
7022;BME280;3552;42.664;23.406;2022-12-18T07:01:46;50236.00;;;-141.28;100.00
7022;BME280;3552;42.664;23.406;2022-12-18T07:04:14;50204.59;;;-141.28;100.00
7022;BME280;3552;42.664;23.406;2022-12-18T07:06:42;50228.16;;;-141.28;100.00
7022;BME280;3552;42.664;23.406;2022-12-18T07:09:12;50226.19;;;-141.28;100.00
7022;BME280;3552;42.664;23.406;2022-12-18T07:11:42;50208.53;;;-141.28;100.00
7022;BME280;3552;42.664;23.406;2022-12-18T07:14:09;50077.03;;;-141.28;100.00
7022;BME280;3552;42.664;23.406;2022-12-18T07:16:36;50190.84;;;-141.28;100.00
7022;BME280;3552;42.664;23.406;2022-12-18T07:19:03;50194.78;;;-141.28;100.00
7022;BME280;3552;42.664;23.406;2022-12-18T07:21:30;50165.34;;;-141.28;100.00
7022;BME280;3552;42.664;23.406;2022-12-18T07:23:57;50184.97;;;-141.28;100.00
7022;BME280;3552;42.664;23.406;2022-12-18T07:26:25;50161.41;;;-141.28;100.00
7022;BME280;3552;42.664;23.406;2022-12-18T07:28:57;50100.56;;;-141.28;100.00
7022;BME280;3552;42.664;23.406;2022-12-18T07:31:25;50137.88;;;-141.28;100.00
7022;BME280;3552;42.664;23.406;2022-12-18T07:33:52;50167.31;;;-141.28;100.00
7022;BME280;3552;42.664;23.406;2022-12-18T07:36:19;50139.81;;;-141.28;100.00
7022;BME280;3552;42.664;23.406;2022-12-18T07:38:48;50118.25;;;-141.28;100.00
7022;BME280;3552;42.664;23.406;2022-12-18T07:41:16;50100.56;;;-141.28;100.00
7022;BME280;3552;42.664;23.406;2022-12-18T07:43:47;50063.28;;;-141.28;100.00
7022;BME280;3552;42.664;23.406;2022-12-18T07:46:16;49974.97;;;-141.28;100.00
7022;BME280;3552;42.664;23.406;2022-12-18T07:48:44;50059.34;;;-141.28;100.00
7022;BME280;3552;42.664;23.406;2022-12-18T07:51:11;50043.66;;;-141.28;100.00
7022;BME280;3552;42.664;23.406;2022-12-18T07:53:38;50031.88;;;-141.28;100.00
7022;BME280;3552;42.664;23.406;2022-12-18T07:56:07;50039.72;;;-141.28;100.00
7022;BME280;3552;42.664;23.406;2022-12-18T07:58:35;50024.03;;;-141.28;100.00
7022;BME280;3552;42.664;23.406;2022-12-18T08:01:03;49998.50;;;-141.28;100.00
7022;BME280;3552;42.664;23.406;2022-12-18T08:03:32;50024.03;;;-141.28;100.00
7022;BME280;3552;42.664;23.406;2022-12-18T08:06:00;50008.34;;;-141.28;100.00
7022;BME280;3552;42.664;23.406;2022-12-18T08:08:28;49976.94;;;-141.28;100.00
7022;BME280;3552;42.664;23.406;2022-12-18T08:10:56;50027.97;;;-141.28;100.00
7022;BME280;3552;42.664;23.406;2022-12-18T08:13:24;50012.25;;;-141.28;100.00
7022;BME280;3552;42.664;23.406;2022-12-18T08:16:03;50022.06;;;-141.28;100.00
7022;BME280;3552;42.664;23.406;2022-12-18T08:18:34;49961.22;;;-141.28;100.00
7022;BME280;3552;42.664;23.406;2022-12-18T08:21:07;49980.84;;;-141.28;100.00
7022;BME280;3552;42.664;23.406;2022-12-18T08:23:37;50004.41;;;-141.28;100.00
7022;BME280;3552;42.664;23.406;2022-12-18T08:26:04;49996.56;;;-141.28;100.00
7022;BME280;3552;42.664;23.406;2022-12-18T08:28:33;50018.16;;;-141.28;100.00
7022;BME280;3552;42.664;23.406;2022-12-18T08:31:00;50063.28;;;-141.28;100.00
7022;BME280;3552;42.664;23.406;2022-12-18T08:33:29;50059.34;;;-141.28;100.00
7022;BME280;3552;42.664;23.406;2022-12-18T08:36:00;50086.84;;;-141.28;100.00
7022;BME280;3552;42.664;23.406;2022-12-18T08:38:28;50137.88;;;-141.28;100.00
7022;BME280;3552;42.664;23.406;2022-12-18T08:41:00;50108.44;;;-141.28;100.00
7022;BME280;3552;42.664;23.406;2022-12-18T08:43:28;50094.69;;;-141.28;100.00
7022;BME280;3552;42.664;23.406;2022-12-18T08:46:13;50149.63;;;-141.28;100.00
7022;BME280;3552;42.664;23.406;2022-12-18T08:48:39;50133.94;;;-141.28;100.00
7022;BME280;3552;42.664;23.406;2022-12-18T08:51:09;50165.34;;;-141.28;100.00
7022;BME280;3552;42.664;23.406;2022-12-18T08:53:38;50161.41;;;-141.28;100.00
7022;BME280;3552;42.664;23.406;2022-12-18T08:56:05;50188.91;;;-141.28;100.00
7022;BME280;3552;42.664;23.406;2022-12-18T08:58:33;50212.44;;;-141.28;100.00
7022;BME280;3552;42.664;23.406;2022-12-18T09:01:02;50208.53;;;-141.28;100.00
7022;BME280;3552;42.664;23.406;2022-12-18T09:03:30;50236.00;;;-141.28;100.00
7022;BME280;3552;42.664;23.406;2022-12-18T09:05:56;50236.00;;;-141.28;100.00
7022;BME280;3552;42.664;23.406;2022-12-18T09:08:25;50243.84;;;-141.28;100.00
7022;BME280;3552;42.664;23.406;2022-12-18T09:10:52;50228.16;;;-141.28;100.00
7022;BME280;3552;42.664;23.406;2022-12-18T09:13:19;50228.16;;;-141.28;100.00
7022;BME280;3552;42.664;23.406;2022-12-18T09:15:48;50220.28;;;-141.28;100.00
7022;BME280;3552;42.664;23.406;2022-12-18T09:18:19;50188.91;;;-141.28;100.00
7022;BME280;3552;42.664;23.406;2022-12-18T09:20:47;50181.03;;;-141.28;100.00
7022;BME280;3552;42.664;23.406;2022-12-18T09:23:15;50120.19;;;-141.28;100.00
7022;BME280;3552;42.664;23.406;2022-12-18T09:25:43;50153.56;;;-141.28;100.00
7022;BME280;3552;42.664;23.406;2022-12-18T09:28:16;50161.41;;;-141.28;100.00
7022;BME280;3552;42.664;23.406;2022-12-18T09:30:44;50179.09;;;-141.28;100.00
7022;BME280;3552;42.664;23.406;2022-12-18T09:33:11;50141.78;;;-141.28;100.00
7022;BME280;3552;42.664;23.406;2022-12-18T09:35:39;50145.72;;;-141.28;100.00
7022;BME280;3552;42.664;23.406;2022-12-18T09:38:07;50181.03;;;-141.28;100.00
7022;BME280;3552;42.664;23.406;2022-12-18T09:40:39;50190.84;;;-141.28;100.00
7022;BME280;3552;42.664;23.406;2022-12-18T09:43:16;50192.81;;;-141.28;100.00
7022;BME280;3552;42.664;23.406;2022-12-18T09:45:46;50149.63;;;-141.28;100.00
7022;BME280;3552;42.664;23.406;2022-12-18T09:48:21;50137.88;;;-141.28;100.00
7022;BME280;3552;42.664;23.406;2022-12-18T09:50:51;50104.50;;;-141.28;100.00
7022;BME280;3552;42.664;23.406;2022-12-18T09:53:35;50094.69;;;-141.28;100.00
7022;BME280;3552;42.664;23.406;2022-12-18T09:56:10;50077.03;;;-141.28;100.00
7022;BME280;3552;42.664;23.406;2022-12-18T09:59:03;50116.28;;;-141.28;100.00
7022;BME280;3552;42.664;23.406;2022-12-18T10:01:45;50080.94;;;-141.28;100.00
7022;BME280;3552;42.664;23.406;2022-12-18T10:04:14;50071.13;;;-141.28;100.00
7022;BME280;3552;42.664;23.406;2022-12-18T10:06:46;50086.84;;;-141.28;100.00
7022;BME280;3552;42.664;23.406;2022-12-18T10:09:22;50092.72;;;-141.28;100.00
7022;BME280;3552;42.664;23.406;2022-12-18T10:11:55;50124.13;;;-141.28;100.00
7022;BME280;3552;42.664;23.406;2022-12-18T10:14:34;49988.69;;;-141.28;100.00
7022;BME280;3552;42.664;23.406;2022-12-18T10:17:11;50102.53;;;-141.28;100.00
7022;BME280;3552;42.664;23.406;2022-12-18T10:19:45;50126.09;;;-141.28;100.00
7022;BME280;3552;42.664;23.406;2022-12-18T10:22:26;50116.28;;;-141.28;100.00
7022;BME280;3552;42.664;23.406;2022-12-18T10:25:03;50094.69;;;-141.28;100.00
7022;BME280;3552;42.664;23.406;2022-12-18T10:27:37;50078.97;;;-141.28;100.00
7022;BME280;3552;42.664;23.406;2022-12-18T10:30:14;50078.97;;;-141.28;100.00
7022;BME280;3552;42.664;23.406;2022-12-18T10:32:42;50075.06;;;-141.28;100.00
7022;BME280;3552;42.664;23.406;2022-12-18T10:35:17;50088.78;;;-141.28;100.00
7022;BME280;3552;42.664;23.406;2022-12-18T10:38:00;50090.75;;;-141.28;100.00
7022;BME280;3552;42.664;23.406;2022-12-18T10:40:27;50108.44;;;-141.28;100.00
7022;BME280;3552;42.664;23.406;2022-12-18T10:43:04;50098.63;;;-141.28;100.00
7022;BME280;3552;42.664;23.406;2022-12-18T10:45:35;50106.47;;;-141.28;100.00
7022;BME280;3552;42.664;23.406;2022-12-18T10:48:03;50126.09;;;-141.28;100.00
7022;BME280;3552;42.664;23.406;2022-12-18T10:50:32;50126.09;;;-141.28;100.00
7022;BME280;3552;42.664;23.406;2022-12-18T10:53:01;50133.94;;;-141.28;100.00
7022;BME280;3552;42.664;23.406;2022-12-18T10:55:33;50106.47;;;-141.28;100.00
7022;BME280;3552;42.664;23.406;2022-12-18T10:58:23;50133.94;;;-141.28;100.00
7022;BME280;3552;42.664;23.406;2022-12-18T11:01:09;50082.91;;;-141.28;100.00
7022;BME280;3552;42.664;23.406;2022-12-18T11:03:38;50035.81;;;-141.28;100.00
7022;BME280;3552;42.664;23.406;2022-12-18T11:06:07;50012.25;;;-141.28;100.00
7022;BME280;3552;42.664;23.406;2022-12-18T11:08:35;49973.00;;;-141.28;100.00
7022;BME280;3552;42.664;23.406;2022-12-18T11:11:09;49961.22;;;-141.28;100.00
7022;BME280;3552;42.664;23.406;2022-12-18T11:13:53;49965.16;;;-141.28;100.00
7022;BME280;3552;42.664;23.406;2022-12-18T11:16:25;49921.97;;;-141.28;100.00
7022;BME280;3552;42.664;23.406;2022-12-18T11:18:52;49918.06;;;-141.28;100.00
7022;BME280;3552;42.664;23.406;2022-12-18T11:21:19;49945.53;;;-141.28;100.00
7022;BME280;3552;42.664;23.406;2022-12-18T11:23:49;49906.28;;;-141.28;100.00
7022;BME280;3552;42.664;23.406;2022-12-18T11:26:17;49953.38;;;-141.28;100.00
7022;BME280;3552;42.664;23.406;2022-12-18T11:28:46;49969.06;;;-141.28;100.00
7022;BME280;3552;42.664;23.406;2022-12-18T11:31:23;49967.13;;;-141.28;100.00
7022;BME280;3552;42.664;23.406;2022-12-18T11:34:00;50004.41;;;-141.28;100.00
7022;BME280;3552;42.664;23.406;2022-12-18T11:36:30;49976.94;;;-141.28;100.00
7022;BME280;3552;42.664;23.406;2022-12-18T11:39:07;49933.75;;;-141.28;100.00
7022;BME280;3552;42.664;23.406;2022-12-18T11:41:41;49939.63;;;-141.28;100.00
7022;BME280;3552;42.664;23.406;2022-12-18T11:44:29;49931.78;;;-141.28;100.00
7022;BME280;3552;42.664;23.406;2022-12-18T11:47:03;49904.31;;;-141.28;100.00
7022;BME280;3552;42.664;23.406;2022-12-18T11:49:35;49890.56;;;-141.28;100.00
7022;BME280;3552;42.664;23.406;2022-12-18T11:52:09;49872.91;;;-141.28;100.00
7022;BME280;3552;42.664;23.406;2022-12-18T11:54:44;49882.72;;;-141.28;100.00
7022;BME280;3552;42.664;23.406;2022-12-18T11:57:23;49847.41;;;-141.28;100.00
7022;BME280;3552;42.664;23.406;2022-12-18T12:00:01;49839.56;;;-141.28;100.00
7022;BME280;3552;42.664;23.406;2022-12-18T12:02:40;49827.78;;;-141.28;100.00
7022;BME280;3552;42.664;23.406;2022-12-18T12:05:24;49796.38;;;-141.28;100.00
7022;BME280;3552;42.664;23.406;2022-12-18T12:07:59;49816.00;;;-141.28;100.00
7022;BME280;3552;42.664;23.406;2022-12-18T12:10:40;49788.53;;;-141.28;100.00
7022;BME280;3552;42.664;23.406;2022-12-18T12:13:22;49776.75;;;-141.28;100.00
7022;BME280;3552;42.664;23.406;2022-12-18T12:16:03;49788.53;;;-141.28;100.00
7022;BME280;3552;42.664;23.406;2022-12-18T12:18:40;49770.88;;;-141.28;100.00
7022;BME280;3552;42.664;23.406;2022-12-18T12:21:18;49772.81;;;-141.28;100.00
7022;BME280;3552;42.664;23.406;2022-12-18T12:23:52;49741.44;;;-141.28;100.00
7022;BME280;3552;42.664;23.406;2022-12-18T12:26:26;49757.13;;;-141.28;100.00
7022;BME280;3552;42.664;23.406;2022-12-18T12:29:08;49753.19;;;-141.28;100.00
7022;BME280;3552;42.664;23.406;2022-12-18T12:31:51;49682.56;;;-141.28;100.00
7022;BME280;3552;42.664;23.406;2022-12-18T12:34:26;49719.84;;;-141.28;100.00
7022;BME280;3552;42.664;23.406;2022-12-18T12:37:06;49698.25;;;-141.28;100.00
7022;BME280;3552;42.664;23.406;2022-12-18T12:39:37;49713.94;;;-141.28;100.00
7022;BME280;3552;42.664;23.406;2022-12-18T12:42:12;49733.56;;;-141.28;100.00
7022;BME280;3552;42.664;23.406;2022-12-18T12:45:00;49713.94;;;-141.28;100.00
7022;BME280;3552;42.664;23.406;2022-12-18T12:47:35;49694.31;;;-141.28;100.00
7022;BME280;3552;42.664;23.406;2022-12-18T12:50:11;49698.25;;;-141.28;100.00
7022;BME280;3552;42.664;23.406;2022-12-18T12:52:43;49674.72;;;-141.28;100.00
7022;BME280;3552;42.664;23.406;2022-12-18T12:55:16;49672.75;;;-141.28;100.00
7022;BME280;3552;42.664;23.406;2022-12-18T12:57:47;49662.94;;;-141.28;100.00